createdAt,value
2023-02-11T04:17:19.131Z,0.00
2023-02-11T04:18:18.673Z,0.00
2023-02-11T04:27:54.949Z,0.00
2023-02-11T04:28:55.039Z,0.00
2023-02-11T09:40:42.305Z,1560.00
2023-02-11T09:41:42.510Z,1504.00
2023-02-11T10:20:33.501Z,1172.00
2023-02-11T10:21:33.125Z,1120.00
2023-02-11T10:22:32.985Z,1068.00
2023-02-11T10:23:32.930Z,1060.00
2023-02-11T10:24:32.856Z,1080.00
2023-02-11T10:25:33.563Z,1076.00
2023-02-11T10:26:32.683Z,1064.00
2023-02-11T10:27:32.612Z,1072.00
2023-02-11T10:28:32.751Z,1180.00
2023-02-11T10:29:32.473Z,1228.00
2023-02-11T10:30:32.516Z,1352.00
2023-02-11T10:31:32.426Z,1548.00
2023-02-11T10:52:28.071Z,2124.00
2023-02-11T10:53:27.146Z,1944.00
2023-02-11T11:25:53.762Z,1148.00
2023-02-11T11:26:53.344Z,980.00
2023-02-11T11:27:52.959Z,864.00
2023-02-11T11:28:52.934Z,796.00
2023-02-11T11:29:53.040Z,756.00
2023-02-11T11:30:53.311Z,760.00
2023-02-11T11:31:53.051Z,780.00
2023-02-11T11:32:52.682Z,936.00
2023-02-11T11:33:53.742Z,1184.00
2023-02-11T11:34:52.600Z,1208.00
2023-02-11T11:35:52.564Z,1208.00
2023-02-11T11:36:52.739Z,1224.00
2023-02-11T11:37:52.757Z,1240.00
2023-02-11T11:38:52.271Z,1240.00
2023-02-11T11:39:52.097Z,1312.00
2023-02-11T11:40:52.388Z,1284.00
2023-02-11T11:41:52.063Z,1276.00
2023-02-11T11:42:51.986Z,1460.00
2023-02-11T11:43:51.929Z,1376.00
2023-02-11T11:44:51.846Z,1412.00
2023-02-11T11:45:51.780Z,1352.00
2023-02-11T11:46:51.782Z,1284.00
2023-02-11T11:47:51.645Z,1336.00
2023-02-11T11:48:51.577Z,1224.00
2023-02-11T11:49:51.522Z,1200.00
2023-02-11T11:50:51.675Z,1176.00
2023-02-11T11:51:51.374Z,1208.00
2023-02-11T11:52:51.304Z,1276.00
2023-02-11T11:53:51.248Z,1236.00
2023-02-11T11:54:51.165Z,1256.00
2023-02-11T11:55:51.106Z,1252.00
2023-02-11T11:56:51.039Z,1300.00
2023-02-11T11:57:50.960Z,1368.00
2023-02-11T11:58:50.794Z,1216.00
2023-02-11T11:59:50.838Z,1172.00
2023-02-11T12:00:51.012Z,1200.00
2023-02-11T12:01:50.697Z,1192.00
2023-02-11T12:02:50.697Z,1184.00
2023-02-11T12:03:50.548Z,1240.00
2023-02-11T12:04:50.479Z,1192.00
2023-02-11T12:05:50.417Z,1088.00
2023-02-11T12:06:50.344Z,1028.00
2023-02-11T12:07:50.313Z,972.00
2023-02-11T12:08:50.212Z,924.00
2023-02-11T12:09:50.143Z,856.00
2023-02-11T12:10:50.356Z,844.00
2023-02-11T12:11:50.028Z,836.00
2023-02-11T12:12:49.945Z,788.00
2023-02-11T12:13:49.763Z,792.00
2023-02-11T12:14:49.802Z,756.00
2023-02-11T12:15:49.626Z,732.00
2023-02-11T12:16:49.747Z,700.00
2023-02-11T12:17:49.591Z,696.00
2023-02-11T12:18:49.542Z,772.00
2023-02-11T12:19:49.455Z,824.00
2023-02-11T12:20:49.725Z,848.00
2023-02-11T12:21:49.317Z,980.00
2023-02-11T12:22:49.259Z,996.00
2023-02-11T12:23:49.184Z,996.00
2023-02-11T12:24:49.124Z,996.00
2023-02-11T12:25:49.046Z,948.00
2023-02-11T12:26:48.994Z,976.00
2023-02-11T12:27:48.915Z,972.00
2023-02-11T12:28:48.844Z,964.00
2023-02-11T12:29:48.776Z,956.00
2023-02-11T12:30:49.020Z,952.00
2023-02-11T12:31:48.652Z,952.00
2023-02-11T12:32:48.569Z,948.00
2023-02-11T12:33:48.505Z,948.00
2023-02-11T12:34:48.431Z,944.00
2023-02-11T12:35:48.365Z,940.00
2023-02-11T12:36:48.327Z,936.00
2023-02-11T12:37:48.228Z,932.00
2023-02-11T12:38:48.180Z,932.00
2023-02-11T12:39:48.089Z,924.00
2023-02-11T12:40:48.200Z,928.00
2023-02-11T12:41:47.958Z,920.00
2023-02-11T12:42:47.887Z,924.00
2023-02-11T12:43:47.820Z,924.00
2023-02-11T12:44:47.749Z,936.00
2023-02-11T12:45:47.706Z,948.00
2023-02-11T12:46:47.614Z,948.00
2023-02-11T12:47:47.546Z,952.00
2023-02-11T12:48:47.478Z,968.00
2023-02-11T12:49:47.410Z,976.00
2023-02-11T12:50:47.337Z,992.00
2023-02-11T12:51:47.274Z,1028.00
2023-02-11T12:52:47.204Z,1072.00
2023-02-11T12:53:47.135Z,1120.00
2023-02-11T12:54:47.068Z,1160.00
2023-02-11T12:55:47.006Z,1212.00
2023-02-11T12:56:46.930Z,1300.00
2023-02-11T12:57:46.871Z,1380.00
2023-02-11T12:58:46.799Z,1452.00
2023-02-11T12:59:46.730Z,1540.00
2023-02-11T13:00:46.690Z,1628.00
2023-02-11T13:01:46.597Z,1732.00
2023-02-11T13:02:46.697Z,1832.00
2023-02-11T13:03:46.463Z,1800.00
2023-02-11T13:04:46.389Z,1724.00
2023-02-11T13:05:46.329Z,1596.00
2023-02-11T13:06:46.255Z,1560.00
2023-02-11T13:07:46.187Z,1520.00
2023-02-11T13:08:46.139Z,1456.00
2023-02-11T13:09:46.054Z,1380.00
2023-02-11T13:10:45.984Z,1344.00
2023-02-11T13:11:45.912Z,1332.00
2023-02-11T13:12:45.859Z,1316.00
2023-02-11T13:13:45.784Z,1268.00
2023-02-11T13:14:45.715Z,1244.00
2023-02-11T13:15:45.644Z,1236.00
2023-02-11T13:16:45.615Z,1188.00
2023-02-11T13:17:45.529Z,1176.00
2023-02-11T13:18:45.452Z,1184.00
2023-02-11T13:19:45.377Z,1196.00
2023-02-11T13:20:45.313Z,1200.00
2023-02-11T13:21:45.242Z,1228.00
2023-02-11T13:22:45.173Z,1228.00
2023-02-11T13:23:45.109Z,1164.00
2023-02-11T13:24:45.044Z,1144.00
2023-02-11T13:25:44.972Z,1112.00
2023-02-11T13:26:44.906Z,1092.00
2023-02-11T13:27:44.867Z,1084.00
2023-02-11T13:28:44.804Z,1100.00
2023-02-11T13:29:44.701Z,1116.00
2023-02-11T13:30:44.737Z,1120.00
2023-02-11T13:31:44.659Z,1152.00
2023-02-11T13:32:44.504Z,1156.00
2023-02-11T13:33:44.442Z,1176.00
2023-02-11T13:34:44.391Z,1248.00
2023-02-11T13:35:44.316Z,1240.00
2023-02-11T13:36:44.243Z,1384.00
2023-02-11T13:37:44.170Z,1384.00
2023-02-11T13:38:44.098Z,1372.00
2023-02-11T13:39:44.023Z,1328.00
2023-02-11T13:40:43.955Z,1364.00
2023-02-11T13:41:43.891Z,1308.00
2023-02-11T13:42:43.826Z,1280.00
2023-02-11T13:43:43.759Z,1236.00
2023-02-11T13:44:43.694Z,1184.00
2023-02-11T13:45:43.646Z,1156.00
2023-02-11T13:46:43.561Z,1152.00
2023-02-11T13:47:43.513Z,1172.00
2023-02-11T13:48:43.419Z,1172.00
2023-02-11T13:49:43.376Z,1264.00
2023-02-11T13:50:43.284Z,1200.00
2023-02-11T13:51:43.220Z,1232.00
2023-02-11T13:52:43.174Z,1216.00
2023-02-11T13:53:43.080Z,1180.00
2023-02-11T13:54:43.020Z,1100.00
2023-02-11T13:55:42.952Z,1068.00
2023-02-11T13:56:42.880Z,1048.00
2023-02-11T13:57:42.826Z,1044.00
2023-02-11T13:58:42.743Z,1056.00
2023-02-11T13:59:42.691Z,1060.00
2023-02-11T14:00:42.611Z,1068.00
2023-02-11T14:01:42.728Z,1084.00
2023-02-11T14:02:42.557Z,1100.00
2023-02-11T14:03:42.401Z,1128.00
2023-02-11T14:04:42.337Z,1164.00
2023-02-11T14:05:42.310Z,1192.00
2023-02-11T14:06:42.207Z,1228.00
2023-02-11T14:07:42.156Z,1288.00
2023-02-11T14:08:42.075Z,1284.00
2023-02-11T14:09:42.013Z,1304.00
2023-02-11T14:10:41.948Z,1312.00
2023-02-11T14:11:41.870Z,1316.00
2023-02-11T14:12:41.808Z,1312.00
2023-02-11T14:13:41.767Z,1292.00
2023-02-11T14:14:41.664Z,1260.00
2023-02-11T14:15:41.604Z,1212.00
2023-02-11T14:16:41.552Z,1152.00
2023-02-11T14:17:41.471Z,1108.00
2023-02-11T14:18:41.402Z,1076.00
2023-02-11T14:19:41.337Z,1056.00
2023-02-11T14:20:41.266Z,1044.00
2023-02-11T14:21:41.193Z,1036.00
2023-02-11T14:22:41.142Z,1036.00
2023-02-11T14:23:40.964Z,1032.00
2023-02-11T14:24:40.999Z,1024.00
2023-02-11T14:25:40.929Z,1016.00
2023-02-11T14:26:40.863Z,996.00
2023-02-11T14:27:40.798Z,976.00
2023-02-11T14:28:40.809Z,960.00
2023-02-11T14:29:40.657Z,952.00
2023-02-11T14:30:40.663Z,940.00
2023-02-11T14:31:40.664Z,932.00
2023-02-11T14:32:40.454Z,916.00
2023-02-11T14:33:40.406Z,900.00
2023-02-11T14:34:40.335Z,888.00
2023-02-11T14:35:40.252Z,876.00
2023-02-11T14:36:40.200Z,868.00
2023-02-11T14:37:40.138Z,852.00
2023-02-11T14:38:40.059Z,852.00
2023-02-11T14:39:39.987Z,844.00
2023-02-11T14:40:39.921Z,836.00
2023-02-11T14:41:39.884Z,816.00
2023-02-11T14:42:39.802Z,808.00
2023-02-11T14:43:39.751Z,808.00
2023-02-11T14:44:39.662Z,800.00
2023-02-11T14:45:39.586Z,800.00
2023-02-11T14:46:39.567Z,796.00
2023-02-11T14:47:39.450Z,784.00
2023-02-11T14:48:39.385Z,768.00
2023-02-11T14:49:39.331Z,764.00
2023-02-11T14:50:39.262Z,724.00
2023-02-11T14:51:39.191Z,708.00
2023-02-11T14:52:39.109Z,696.00
2023-02-11T14:53:39.055Z,692.00
2023-02-11T14:54:38.979Z,676.00
2023-02-11T14:55:38.912Z,680.00
2023-02-11T14:56:38.859Z,664.00
2023-02-11T14:57:38.778Z,664.00
2023-02-11T14:58:38.706Z,708.00
2023-02-11T14:59:38.722Z,676.00
2023-02-11T15:00:38.583Z,672.00
2023-02-11T15:01:38.547Z,748.00
2023-02-11T15:02:38.512Z,828.00
2023-02-11T15:03:38.281Z,732.00
2023-02-11T15:04:38.342Z,716.00
2023-02-11T15:05:38.240Z,716.00
2023-02-11T15:06:38.183Z,732.00
2023-02-11T15:07:38.106Z,724.00
2023-02-11T15:08:38.043Z,720.00
2023-02-11T15:09:37.868Z,740.00
2023-02-11T15:10:37.917Z,764.00
2023-02-11T15:11:37.839Z,772.00
2023-02-11T15:12:37.764Z,760.00
2023-02-11T15:13:37.706Z,752.00
2023-02-11T15:14:37.532Z,744.00
2023-02-11T15:15:37.609Z,728.00
2023-02-11T15:16:37.498Z,716.00
2023-02-11T15:17:37.450Z,704.00
2023-02-11T15:18:37.362Z,696.00
2023-02-11T15:19:37.295Z,700.00
2023-02-11T15:20:37.264Z,708.00
2023-02-11T15:21:37.178Z,712.00
2023-02-11T15:22:37.105Z,704.00
2023-02-11T15:23:37.029Z,688.00
2023-02-11T15:24:36.963Z,688.00
2023-02-11T15:25:36.899Z,692.00
2023-02-11T15:26:36.844Z,688.00
2023-02-11T15:27:36.757Z,688.00
2023-02-11T15:28:36.800Z,676.00
2023-02-11T15:29:36.627Z,660.00
2023-02-11T15:30:36.585Z,652.00
2023-02-11T15:31:36.569Z,640.00
2023-02-11T15:32:36.419Z,624.00
2023-02-11T15:33:36.358Z,612.00
2023-02-11T15:34:36.288Z,616.00
2023-02-11T15:35:36.219Z,576.00
2023-02-11T15:36:36.154Z,568.00
2023-02-11T15:37:36.086Z,568.00
2023-02-11T15:38:36.046Z,556.00
2023-02-11T15:39:35.952Z,536.00
2023-02-11T15:40:35.910Z,520.00
2023-02-11T15:41:35.836Z,504.00
2023-02-11T15:42:50.685Z,492.00
2023-02-11T15:43:35.690Z,480.00
2023-02-11T15:44:35.628Z,460.00
2023-02-11T15:45:35.557Z,448.00
2023-02-11T15:46:35.514Z,440.00
2023-02-11T15:47:35.423Z,428.00
2023-02-11T15:48:35.348Z,412.00
2023-02-11T15:49:35.282Z,400.00
2023-02-11T15:50:35.209Z,388.00
2023-02-11T15:51:35.145Z,376.00
2023-02-11T15:52:35.080Z,372.00
2023-02-11T15:53:35.015Z,368.00
2023-02-11T15:54:34.949Z,364.00
2023-02-11T15:55:34.869Z,360.00
2023-02-11T15:56:34.824Z,352.00
2023-02-11T15:57:34.737Z,340.00
2023-02-11T15:58:34.691Z,324.00
2023-02-11T15:59:34.606Z,312.00
2023-02-11T16:00:34.536Z,300.00
2023-02-11T16:01:34.571Z,284.00
2023-02-11T16:02:34.413Z,268.00
2023-02-11T16:03:34.338Z,260.00
2023-02-11T16:04:34.303Z,244.00
2023-02-11T16:05:34.201Z,232.00
2023-02-11T16:06:34.133Z,220.00
2023-02-11T16:07:34.062Z,204.00
2023-02-11T16:08:34.006Z,192.00
2023-02-11T16:09:33.937Z,180.00
2023-02-11T16:10:33.862Z,168.00
2023-02-11T16:11:33.802Z,152.00
2023-02-11T16:12:33.722Z,140.00
2023-02-11T16:13:33.685Z,128.00
2023-02-11T16:14:33.591Z,120.00
2023-02-11T16:15:33.528Z,108.00
2023-02-11T16:16:33.476Z,104.00
2023-02-11T16:17:33.405Z,96.00
2023-02-11T16:18:38.827Z,88.00
2023-02-11T16:19:33.255Z,80.00
2023-02-11T16:20:33.181Z,76.00
2023-02-11T16:21:33.127Z,68.00
2023-02-11T16:22:33.048Z,64.00
2023-02-11T16:23:32.987Z,60.00
2023-02-11T16:24:32.918Z,52.00
2023-02-11T16:25:32.850Z,48.00
2023-02-11T16:26:32.783Z,44.00
2023-02-11T16:27:32.733Z,44.00
2023-02-11T16:28:32.685Z,36.00
2023-02-11T16:29:32.582Z,36.00
2023-02-11T16:30:32.540Z,32.00
2023-02-11T16:31:32.500Z,32.00
2023-02-11T16:32:32.376Z,28.00
2023-02-11T16:33:32.309Z,24.00
2023-02-11T16:34:32.247Z,24.00
2023-02-11T16:35:32.174Z,16.00
2023-02-11T16:36:32.114Z,16.00
2023-02-11T16:37:32.033Z,16.00
2023-02-11T16:38:31.874Z,12.00
2023-02-11T16:39:31.905Z,12.00
2023-02-11T16:40:31.841Z,8.00
2023-02-11T16:41:31.759Z,8.00
2023-02-11T16:42:31.700Z,8.00
2023-02-11T16:43:31.629Z,4.00
2023-02-11T16:44:31.565Z,4.00
2023-02-11T16:45:31.497Z,4.00
2023-02-11T16:46:31.489Z,4.00
2023-02-11T16:47:31.368Z,4.00
2023-02-11T16:48:31.296Z,0.00
2023-02-11T16:49:31.233Z,0.00
2023-02-11T16:50:31.157Z,4.00
2023-02-11T16:51:31.089Z,0.00
2023-02-11T16:52:31.020Z,0.00
2023-02-11T16:53:30.955Z,0.00
2023-02-11T16:54:30.883Z,0.00
2023-02-11T16:55:32.677Z,0.00
2023-02-11T16:56:30.746Z,0.00
2023-02-11T16:57:30.671Z,0.00
2023-02-11T16:58:30.623Z,0.00
2023-02-11T16:59:30.554Z,0.00
2023-02-11T17:00:30.555Z,0.00
2023-02-11T17:01:30.472Z,0.00
2023-02-11T17:03:53.592Z,0.00
2023-02-11T17:04:53.267Z,0.00
2023-02-11T17:49:33.825Z,0.00
2023-02-11T17:50:33.570Z,0.00
2023-02-11T18:47:26.678Z,0.00
2023-02-11T18:48:26.251Z,0.00
2023-02-11T18:49:26.213Z,0.00
2023-02-11T18:50:26.168Z,0.00
2023-02-11T18:51:26.932Z,0.00
2023-02-11T18:52:25.931Z,0.00
2023-02-11T18:53:25.854Z,0.00
2023-02-11T18:54:25.807Z,0.00
2023-02-11T18:55:25.732Z,0.00
2023-02-11T18:56:25.676Z,0.00
2023-02-11T18:57:25.590Z,0.00
2023-02-11T18:58:25.523Z,0.00
2023-02-11T18:59:25.455Z,0.00
2023-02-11T19:32:17.799Z,0.00
2023-02-11T19:33:17.503Z,0.00
2023-02-11T22:51:59.763Z,0.00
2023-02-11T22:52:59.968Z,0.00
